sensor_id;sensor_type;location;lat;lon;timestamp;pressure;altitude;pressure_sealevel;temperature;humidity
65376;BME280;51976;47.332;9.404;2023-04-08T00:00:12;92839.81;;;5.19;71.14
65376;BME280;51976;47.332;9.404;2023-04-08T00:02:38;92838.34;;;5.33;70.08
65376;BME280;51976;47.332;9.404;2023-04-08T00:05:04;92839.53;;;5.42;69.88
65376;BME280;51976;47.332;9.404;2023-04-08T00:07:29;92836.41;;;5.50;69.58
65376;BME280;51976;47.332;9.404;2023-04-08T00:09:55;92840.69;;;5.51;69.58
65376;BME280;51976;47.332;9.404;2023-04-08T00:12:20;92837.22;;;5.51;69.73
65376;BME280;51976;47.332;9.404;2023-04-08T00:14:46;92837.25;;;5.29;70.19
65376;BME280;51976;47.332;9.404;2023-04-08T00:17:11;92833.28;;;5.09;70.94
65376;BME280;51976;47.332;9.404;2023-04-08T00:19:37;92824.44;;;5.31;70.61
65376;BME280;51976;47.332;9.404;2023-04-08T00:22:02;92830.47;;;5.43;70.47
65376;BME280;51976;47.332;9.404;2023-04-08T00:24:28;92828.56;;;5.17;70.68
65376;BME280;51976;47.332;9.404;2023-04-08T00:26:53;92818.13;;;5.15;71.21
65376;BME280;51976;47.332;9.404;2023-04-08T00:29:18;92833.22;;;5.04;70.92
65376;BME280;51976;47.332;9.404;2023-04-08T00:31:44;92833.69;;;5.01;71.16
65376;BME280;51976;47.332;9.404;2023-04-08T00:34:09;92830.22;;;5.23;70.49
65376;BME280;51976;47.332;9.404;2023-04-08T00:36:35;92825.81;;;5.12;70.41
65376;BME280;51976;47.332;9.404;2023-04-08T00:39:01;92823.78;;;5.19;70.38
65376;BME280;51976;47.332;9.404;2023-04-08T00:41:28;92826.69;;;4.95;70.49
65376;BME280;51976;47.332;9.404;2023-04-08T00:43:53;92815.06;;;4.63;71.13
65376;BME280;51976;47.332;9.404;2023-04-08T00:46:19;92825.03;;;4.89;70.96
65376;BME280;51976;47.332;9.404;2023-04-08T00:48:45;92830.28;;;4.84;71.34
65376;BME280;51976;47.332;9.404;2023-04-08T00:51:11;92826.31;;;5.08;70.27
65376;BME280;51976;47.332;9.404;2023-04-08T00:53:37;92825.81;;;5.12;69.95
65376;BME280;51976;47.332;9.404;2023-04-08T00:56:02;92824.78;;;5.13;69.90
65376;BME280;51976;47.332;9.404;2023-04-08T00:58:28;92790.91;;;4.96;69.34
65376;BME280;51976;47.332;9.404;2023-04-08T01:01:00;92819.91;;;5.31;69.03
65376;BME280;51976;47.332;9.404;2023-04-08T01:03:46;92784.19;;;5.16;68.91
65376;BME280;51976;47.332;9.404;2023-04-08T01:06:21;92806.84;;;5.35;68.71
65376;BME280;51976;47.332;9.404;2023-04-08T01:08:49;92806.44;;;5.48;68.97
65376;BME280;51976;47.332;9.404;2023-04-08T01:11:16;92802.50;;;5.56;68.65
65376;BME280;51976;47.332;9.404;2023-04-08T01:13:43;92811.47;;;5.18;70.10
65376;BME280;51976;47.332;9.404;2023-04-08T01:16:12;92808.41;;;5.09;70.96
65376;BME280;51976;47.332;9.404;2023-04-08T01:18:39;92809.34;;;4.98;71.41
65376;BME280;51976;47.332;9.404;2023-04-08T01:21:06;92803.25;;;4.81;72.15
65376;BME280;51976;47.332;9.404;2023-04-08T01:23:40;92815.88;;;4.85;72.17
65376;BME280;51976;47.332;9.404;2023-04-08T01:26:11;92813.63;;;4.77;72.01
65376;BME280;51976;47.332;9.404;2023-04-08T01:28:38;92825.25;;;4.88;71.58
65376;BME280;51976;47.332;9.404;2023-04-08T01:31:05;92787.56;;;4.84;71.15
65376;BME280;51976;47.332;9.404;2023-04-08T01:33:31;92822.91;;;5.13;70.73
65376;BME280;51976;47.332;9.404;2023-04-08T01:35:59;92825.88;;;5.17;70.39
65376;BME280;51976;47.332;9.404;2023-04-08T01:38:26;92819.91;;;5.09;70.76
65376;BME280;51976;47.332;9.404;2023-04-08T01:40:53;92823.72;;;5.14;70.87
65376;BME280;51976;47.332;9.404;2023-04-08T01:43:20;92822.44;;;4.99;71.41
65376;BME280;51976;47.332;9.404;2023-04-08T01:45:46;92818.38;;;5.14;70.68
65376;BME280;51976;47.332;9.404;2023-04-08T01:48:13;92822.75;;;5.25;70.29
65376;BME280;51976;47.332;9.404;2023-04-08T01:50:41;92812.63;;;5.27;69.84
65376;BME280;51976;47.332;9.404;2023-04-08T01:53:08;92822.81;;;5.30;69.61
65376;BME280;51976;47.332;9.404;2023-04-08T01:55:35;92817.91;;;5.22;69.72
65376;BME280;51976;47.332;9.404;2023-04-08T01:58:02;92814.19;;;5.23;69.61
65376;BME280;51976;47.332;9.404;2023-04-08T02:00:30;92813.28;;;5.12;69.62
65376;BME280;51976;47.332;9.404;2023-04-08T02:02:57;92820.56;;;5.22;69.58
65376;BME280;51976;47.332;9.404;2023-04-08T02:05:23;92818.28;;;5.30;69.25
65376;BME280;51976;47.332;9.404;2023-04-08T02:07:48;92728.72;;;4.79;69.34
65376;BME280;51976;47.332;9.404;2023-04-08T02:10:14;92808.75;;;5.39;68.92
65376;BME280;51976;47.332;9.404;2023-04-08T02:12:41;92800.50;;;5.41;68.80
65376;BME280;51976;47.332;9.404;2023-04-08T02:15:08;92818.28;;;5.30;69.38
65376;BME280;51976;47.332;9.404;2023-04-08T02:17:48;92815.19;;;5.17;69.88
65376;BME280;51976;47.332;9.404;2023-04-08T02:20:23;92816.50;;;5.14;69.97
65376;BME280;51976;47.332;9.404;2023-04-08T02:23:05;92823.31;;;5.27;69.86
65376;BME280;51976;47.332;9.404;2023-04-08T02:25:34;92794.00;;;5.10;69.30
65376;BME280;51976;47.332;9.404;2023-04-08T02:28:02;92821.75;;;5.31;69.25
65376;BME280;51976;47.332;9.404;2023-04-08T02:30:30;92828.16;;;5.30;69.00
65376;BME280;51976;47.332;9.404;2023-04-08T02:32:57;92820.09;;;5.25;69.48
65376;BME280;51976;47.332;9.404;2023-04-08T02:35:23;92827.53;;;5.23;69.43
65376;BME280;51976;47.332;9.404;2023-04-08T02:37:49;92828.81;;;5.15;70.15
65376;BME280;51976;47.332;9.404;2023-04-08T02:40:30;92826.50;;;5.02;70.54
65376;BME280;51976;47.332;9.404;2023-04-08T02:42:57;92825.31;;;5.15;70.27
65376;BME280;51976;47.332;9.404;2023-04-08T02:45:28;92830.22;;;5.01;70.42
65376;BME280;51976;47.332;9.404;2023-04-08T02:47:55;92823.16;;;5.12;70.09
65376;BME280;51976;47.332;9.404;2023-04-08T02:50:20;92824.84;;;5.18;69.95
65376;BME280;51976;47.332;9.404;2023-04-08T02:52:46;92831.25;;;5.22;69.84
65376;BME280;51976;47.332;9.404;2023-04-08T02:55:11;92828.28;;;4.96;70.29
65376;BME280;51976;47.332;9.404;2023-04-08T02:57:39;92824.69;;;5.07;70.17
65376;BME280;51976;47.332;9.404;2023-04-08T03:00:06;92824.13;;;5.05;70.36
65376;BME280;51976;47.332;9.404;2023-04-08T03:02:31;92824.44;;;5.09;69.98
65376;BME280;51976;47.332;9.404;2023-04-08T03:04:57;92771.78;;;4.83;69.73
65376;BME280;51976;47.332;9.404;2023-04-08T03:07:23;92826.63;;;5.12;70.02
65376;BME280;51976;47.332;9.404;2023-04-08T03:09:48;92824.13;;;5.05;70.42
65376;BME280;51976;47.332;9.404;2023-04-08T03:12:13;92824.69;;;5.07;70.60
65376;BME280;51976;47.332;9.404;2023-04-08T03:14:39;92823.91;;;5.07;70.82
65376;BME280;51976;47.332;9.404;2023-04-08T03:17:04;92832.28;;;5.16;70.41
65376;BME280;51976;47.332;9.404;2023-04-08T03:19:30;92827.78;;;5.21;70.59
65376;BME280;51976;47.332;9.404;2023-04-08T03:21:55;92829.78;;;5.09;71.05
65376;BME280;51976;47.332;9.404;2023-04-08T03:24:20;92830.41;;;4.94;71.43
65376;BME280;51976;47.332;9.404;2023-04-08T03:26:46;92837.69;;;4.99;71.47
65376;BME280;51976;47.332;9.404;2023-04-08T03:29:11;92837.34;;;4.73;71.95
65376;BME280;51976;47.332;9.404;2023-04-08T03:31:36;92827.88;;;4.83;71.98
65376;BME280;51976;47.332;9.404;2023-04-08T03:34:02;92835.63;;;4.84;72.10
65376;BME280;51976;47.332;9.404;2023-04-08T03:36:27;92793.47;;;4.64;71.50
65376;BME280;51976;47.332;9.404;2023-04-08T03:38:53;92789.28;;;4.52;71.46
65376;BME280;51976;47.332;9.404;2023-04-08T03:41:18;92833.06;;;4.94;71.30
65376;BME280;51976;47.332;9.404;2023-04-08T03:43:43;92833.22;;;5.04;71.01
65376;BME280;51976;47.332;9.404;2023-04-08T03:46:10;92833.47;;;5.03;70.92
65376;BME280;51976;47.332;9.404;2023-04-08T03:48:35;92822.69;;;4.98;70.81
65376;BME280;51976;47.332;9.404;2023-04-08T03:51:00;92837.19;;;5.02;70.97
65376;BME280;51976;47.332;9.404;2023-04-08T03:53:26;92820.66;;;4.83;71.22
65376;BME280;51976;47.332;9.404;2023-04-08T03:55:53;92837.56;;;4.89;71.84
65376;BME280;51976;47.332;9.404;2023-04-08T03:58:20;92833.63;;;4.96;71.74
65376;BME280;51976;47.332;9.404;2023-04-08T04:00:45;92834.25;;;5.03;71.39
65376;BME280;51976;47.332;9.404;2023-04-08T04:03:10;92844.31;;;4.96;71.85
65376;BME280;51976;47.332;9.404;2023-04-08T04:05:38;92839.53;;;4.98;71.81
65376;BME280;51976;47.332;9.404;2023-04-08T04:08:04;92851.28;;;4.97;71.59
65376;BME280;51976;47.332;9.404;2023-04-08T04:10:29;92842.53;;;5.02;71.69
65376;BME280;51976;47.332;9.404;2023-04-08T04:12:55;92847.38;;;5.05;71.75
65376;BME280;51976;47.332;9.404;2023-04-08T04:15:20;92847.75;;;5.14;71.41
65376;BME280;51976;47.332;9.404;2023-04-08T04:17:48;92836.00;;;5.15;71.52
65376;BME280;51976;47.332;9.404;2023-04-08T04:20:17;92845.16;;;5.19;71.76
65376;BME280;51976;47.332;9.404;2023-04-08T04:22:42;92855.47;;;5.10;72.27
65376;BME280;51976;47.332;9.404;2023-04-08T04:25:09;92846.69;;;5.15;72.47
65376;BME280;51976;47.332;9.404;2023-04-08T04:27:34;92834.66;;;5.12;71.74
65376;BME280;51976;47.332;9.404;2023-04-08T04:30:01;92850.47;;;4.97;72.46
65376;BME280;51976;47.332;9.404;2023-04-08T04:32:26;92855.06;;;4.80;72.79
65376;BME280;51976;47.332;9.404;2023-04-08T04:34:51;92857.31;;;4.88;72.74
65376;BME280;51976;47.332;9.404;2023-04-08T04:37:17;92846.66;;;4.93;72.63
65376;BME280;51976;47.332;9.404;2023-04-08T04:39:43;92860.00;;;5.09;72.37
65376;BME280;51976;47.332;9.404;2023-04-08T04:42:08;92852.16;;;5.03;72.28
65376;BME280;51976;47.332;9.404;2023-04-08T04:44:34;92837.34;;;4.95;71.97
65376;BME280;51976;47.332;9.404;2023-04-08T04:46:59;92852.41;;;5.01;71.99
65376;BME280;51976;47.332;9.404;2023-04-08T04:49:25;92858.69;;;5.12;71.30
65376;BME280;51976;47.332;9.404;2023-04-08T04:51:50;92855.47;;;5.10;71.31
65376;BME280;51976;47.332;9.404;2023-04-08T04:54:16;92857.31;;;5.09;71.61
65376;BME280;51976;47.332;9.404;2023-04-08T04:56:41;92854.16;;;5.13;71.58
65376;BME280;51976;47.332;9.404;2023-04-08T04:59:06;92853.28;;;5.07;72.01
65376;BME280;51976;47.332;9.404;2023-04-08T05:01:33;92845.19;;;5.02;72.12
65376;BME280;51976;47.332;9.404;2023-04-08T05:03:58;92857.88;;;4.90;72.30
65376;BME280;51976;47.332;9.404;2023-04-08T05:06:24;92855.31;;;5.00;72.59
65376;BME280;51976;47.332;9.404;2023-04-08T05:08:50;92857.56;;;4.86;72.74
65376;BME280;51976;47.332;9.404;2023-04-08T05:11:16;92861.59;;;4.89;72.90
65376;BME280;51976;47.332;9.404;2023-04-08T05:13:43;92856.94;;;5.01;72.71
65376;BME280;51976;47.332;9.404;2023-04-08T05:16:08;92828.66;;;4.83;72.65
65376;BME280;51976;47.332;9.404;2023-04-08T05:18:34;92856.75;;;5.07;73.01
65376;BME280;51976;47.332;9.404;2023-04-08T05:21:00;92857.81;;;4.85;73.71
65376;BME280;51976;47.332;9.404;2023-04-08T05:23:25;92858.38;;;4.70;74.45
65376;BME280;51976;47.332;9.404;2023-04-08T05:25:50;92858.69;;;4.35;74.84
65376;BME280;51976;47.332;9.404;2023-04-08T05:28:16;92827.66;;;3.95;76.01
65376;BME280;51976;47.332;9.404;2023-04-08T05:30:41;92878.03;;;4.25;76.51
65376;BME280;51976;47.332;9.404;2023-04-08T05:33:07;92875.00;;;4.38;76.36
65376;BME280;51976;47.332;9.404;2023-04-08T05:35:32;92842.03;;;4.11;75.98
65376;BME280;51976;47.332;9.404;2023-04-08T05:37:58;92884.31;;;4.53;75.40
65376;BME280;51976;47.332;9.404;2023-04-08T05:40:23;92887.19;;;4.68;74.47
65376;BME280;51976;47.332;9.404;2023-04-08T05:42:48;92881.53;;;4.81;74.23
65376;BME280;51976;47.332;9.404;2023-04-08T05:45:14;92879.25;;;4.73;74.43
65376;BME280;51976;47.332;9.404;2023-04-08T05:47:40;92893.28;;;4.47;75.15
65376;BME280;51976;47.332;9.404;2023-04-08T05:50:06;92887.81;;;4.36;75.33
65376;BME280;51976;47.332;9.404;2023-04-08T05:52:31;92893.06;;;4.31;75.40
65376;BME280;51976;47.332;9.404;2023-04-08T05:54:57;92892.72;;;4.45;74.58
65376;BME280;51976;47.332;9.404;2023-04-08T05:57:22;92894.50;;;4.56;73.80
65376;BME280;51976;47.332;9.404;2023-04-08T05:59:48;92892.41;;;4.58;73.64
65376;BME280;51976;47.332;9.404;2023-04-08T06:02:13;92895.66;;;4.60;72.95
65376;BME280;51976;47.332;9.404;2023-04-08T06:04:38;92851.72;;;4.17;73.25
65376;BME280;51976;47.332;9.404;2023-04-08T06:07:04;92895.81;;;4.36;73.07
65376;BME280;51976;47.332;9.404;2023-04-08T06:09:33;92905.22;;;3.94;73.33
65376;BME280;51976;47.332;9.404;2023-04-08T06:11:59;92906.84;;;4.12;73.07
65376;BME280;51976;47.332;9.404;2023-04-08T06:14:24;92895.22;;;4.18;72.84
65376;BME280;51976;47.332;9.404;2023-04-08T06:16:50;92909.06;;;4.31;72.56
65376;BME280;51976;47.332;9.404;2023-04-08T06:19:17;92903.31;;;4.23;72.76
65376;BME280;51976;47.332;9.404;2023-04-08T06:21:42;92901.53;;;4.12;73.43
65376;BME280;51976;47.332;9.404;2023-04-08T06:24:08;92873.97;;;4.06;73.39
65376;BME280;51976;47.332;9.404;2023-04-08T06:26:33;92913.69;;;4.36;73.37
65376;BME280;51976;47.332;9.404;2023-04-08T06:28:58;92912.38;;;4.55;72.66
65376;BME280;51976;47.332;9.404;2023-04-08T06:31:24;92866.72;;;4.35;72.31
65376;BME280;51976;47.332;9.404;2023-04-08T06:33:50;92911.38;;;4.78;72.10
65376;BME280;51976;47.332;9.404;2023-04-08T06:36:16;92913.03;;;4.46;73.59
65376;BME280;51976;47.332;9.404;2023-04-08T06:38:42;92913.69;;;4.36;73.95
65376;BME280;51976;47.332;9.404;2023-04-08T06:41:07;92913.59;;;4.31;74.98
65376;BME280;51976;47.332;9.404;2023-04-08T06:43:34;92918.53;;;4.56;74.18
65376;BME280;51976;47.332;9.404;2023-04-08T06:45:59;92913.97;;;4.73;73.77
65376;BME280;51976;47.332;9.404;2023-04-08T06:48:25;92918.66;;;4.66;73.47
65376;BME280;51976;47.332;9.404;2023-04-08T06:50:57;92921.59;;;4.48;73.50
65376;BME280;51976;47.332;9.404;2023-04-08T06:53:23;92916.09;;;4.04;74.47
65376;BME280;51976;47.332;9.404;2023-04-08T06:55:48;92923.53;;;4.19;74.40
65376;BME280;51976;47.332;9.404;2023-04-08T06:58:14;92917.53;;;4.12;73.94
65376;BME280;51976;47.332;9.404;2023-04-08T07:00:40;92924.13;;;3.92;74.67
65376;BME280;51976;47.332;9.404;2023-04-08T07:03:06;92930.81;;;3.78;74.71
65376;BME280;51976;47.332;9.404;2023-04-08T07:05:31;92931.09;;;3.65;75.53
65376;BME280;51976;47.332;9.404;2023-04-08T07:07:57;92938.13;;;3.83;75.93
65376;BME280;51976;47.332;9.404;2023-04-08T07:10:22;92931.69;;;4.12;75.11
65376;BME280;51976;47.332;9.404;2023-04-08T07:12:47;92935.72;;;3.69;75.49
65376;BME280;51976;47.332;9.404;2023-04-08T07:15:13;92931.56;;;3.90;75.49
65376;BME280;51976;47.332;9.404;2023-04-08T07:17:38;92933.88;;;4.15;74.65
65376;BME280;51976;47.332;9.404;2023-04-08T07:20:05;92933.25;;;4.25;74.89
65376;BME280;51976;47.332;9.404;2023-04-08T07:22:30;92938.09;;;4.45;73.91
65376;BME280;51976;47.332;9.404;2023-04-08T07:24:56;92932.59;;;4.51;73.63
65376;BME280;51976;47.332;9.404;2023-04-08T07:27:21;92915.84;;;4.39;73.10
65376;BME280;51976;47.332;9.404;2023-04-08T07:29:51;92940.78;;;4.61;73.96
65376;BME280;51976;47.332;9.404;2023-04-08T07:32:17;92944.41;;;4.72;73.68
65376;BME280;51976;47.332;9.404;2023-04-08T07:34:43;92943.34;;;4.73;73.05
65376;BME280;51976;47.332;9.404;2023-04-08T07:37:08;92946.19;;;4.66;72.84
65376;BME280;51976;47.332;9.404;2023-04-08T07:39:35;92938.84;;;4.57;72.60
65376;BME280;51976;47.332;9.404;2023-04-08T07:42:00;92953.47;;;4.54;73.12
65376;BME280;51976;47.332;9.404;2023-04-08T07:44:26;92948.78;;;4.61;72.76
65376;BME280;51976;47.332;9.404;2023-04-08T07:46:51;92911.41;;;4.45;72.09
65376;BME280;51976;47.332;9.404;2023-04-08T07:49:17;92951.38;;;4.73;72.22
65376;BME280;51976;47.332;9.404;2023-04-08T07:51:42;92862.50;;;4.22;72.46
65376;BME280;51976;47.332;9.404;2023-04-08T07:54:07;92967.16;;;4.58;72.90
65376;BME280;51976;47.332;9.404;2023-04-08T07:56:36;92961.66;;;4.64;72.44
65376;BME280;51976;47.332;9.404;2023-04-08T07:59:05;92960.59;;;4.82;72.13
65376;BME280;51976;47.332;9.404;2023-04-08T08:01:30;92958.16;;;4.81;72.22
65376;BME280;51976;47.332;9.404;2023-04-08T08:03:59;92951.19;;;4.80;72.40
65376;BME280;51976;47.332;9.404;2023-04-08T08:06:24;92951.97;;;4.97;72.05
65376;BME280;51976;47.332;9.404;2023-04-08T08:08:50;92962.91;;;4.95;72.58
65376;BME280;51976;47.332;9.404;2023-04-08T08:11:15;92968.09;;;5.02;72.81
65376;BME280;51976;47.332;9.404;2023-04-08T08:13:41;92968.00;;;4.97;72.58
65376;BME280;51976;47.332;9.404;2023-04-08T08:16:06;92975.81;;;4.82;73.17
65376;BME280;51976;47.332;9.404;2023-04-08T08:18:35;92971.91;;;4.72;72.71
65376;BME280;51976;47.332;9.404;2023-04-08T08:21:01;92920.13;;;4.40;72.71
65376;BME280;51976;47.332;9.404;2023-04-08T08:23:27;92905.94;;;4.34;73.19
65376;BME280;51976;47.332;9.404;2023-04-08T08:25:59;92984.81;;;4.92;72.90
65376;BME280;51976;47.332;9.404;2023-04-08T08:28:25;92979.47;;;4.92;73.06
65376;BME280;51976;47.332;9.404;2023-04-08T08:30:50;92979.50;;;4.97;72.99
65376;BME280;51976;47.332;9.404;2023-04-08T08:33:16;92983.72;;;5.10;72.28
65376;BME280;51976;47.332;9.404;2023-04-08T08:35:41;92988.41;;;5.20;72.14
65376;BME280;51976;47.332;9.404;2023-04-08T08:38:06;92983.69;;;5.27;72.49
65376;BME280;51976;47.332;9.404;2023-04-08T08:40:32;92979.06;;;5.22;72.07
65376;BME280;51976;47.332;9.404;2023-04-08T08:42:58;92998.41;;;5.29;72.38
65376;BME280;51976;47.332;9.404;2023-04-08T08:45:25;92984.88;;;5.36;72.54
65376;BME280;51976;47.332;9.404;2023-04-08T08:47:51;92995.19;;;5.27;72.42
65376;BME280;51976;47.332;9.404;2023-04-08T08:50:16;92995.50;;;5.31;72.61
65376;BME280;51976;47.332;9.404;2023-04-08T08:52:51;93002.53;;;5.37;72.23
65376;BME280;51976;47.332;9.404;2023-04-08T08:55:18;92997.53;;;5.24;73.19
65376;BME280;51976;47.332;9.404;2023-04-08T08:57:44;92942.06;;;4.92;72.98
65376;BME280;51976;47.332;9.404;2023-04-08T09:00:10;92982.66;;;5.11;73.91
65376;BME280;51976;47.332;9.404;2023-04-08T09:02:35;92978.66;;;4.92;73.71
65376;BME280;51976;47.332;9.404;2023-04-08T09:05:02;92997.41;;;5.14;73.92
65376;BME280;51976;47.332;9.404;2023-04-08T09:07:29;92994.81;;;5.19;74.12
65376;BME280;51976;47.332;9.404;2023-04-08T09:09:56;92991.72;;;5.10;74.92
65376;BME280;51976;47.332;9.404;2023-04-08T09:12:23;92992.47;;;5.05;74.49
65376;BME280;51976;47.332;9.404;2023-04-08T09:14:49;93001.38;;;5.11;74.33
65376;BME280;51976;47.332;9.404;2023-04-08T09:17:15;92997.75;;;5.39;73.44
65376;BME280;51976;47.332;9.404;2023-04-08T09:20:05;92995.81;;;5.34;73.13
65376;BME280;51976;47.332;9.404;2023-04-08T09:22:34;92994.25;;;5.00;74.34
65376;BME280;51976;47.332;9.404;2023-04-08T09:24:59;92988.56;;;4.96;74.76
65376;BME280;51976;47.332;9.404;2023-04-08T09:27:34;92998.06;;;4.87;75.37
65376;BME280;51976;47.332;9.404;2023-04-08T09:30:14;93003.25;;;4.77;74.87
65376;BME280;51976;47.332;9.404;2023-04-08T09:32:47;92988.75;;;5.06;74.39
65376;BME280;51976;47.332;9.404;2023-04-08T09:35:13;92995.63;;;5.19;74.08
65376;BME280;51976;47.332;9.404;2023-04-08T09:37:40;92988.97;;;5.05;73.99
65376;BME280;51976;47.332;9.404;2023-04-08T09:40:06;92989.19;;;5.59;72.86
65376;BME280;51976;47.332;9.404;2023-04-08T09:42:33;92996.38;;;5.97;72.67
65376;BME280;51976;47.332;9.404;2023-04-08T09:45:03;92993.44;;;6.20;72.77
65376;BME280;51976;47.332;9.404;2023-04-08T09:47:35;92997.75;;;5.99;71.33
65376;BME280;51976;47.332;9.404;2023-04-08T09:50:04;92985.22;;;6.05;72.54
65376;BME280;51976;47.332;9.404;2023-04-08T09:52:43;92985.69;;;5.80;72.27
65376;BME280;51976;47.332;9.404;2023-04-08T09:55:11;92980.25;;;5.92;72.58
65376;BME280;51976;47.332;9.404;2023-04-08T09:57:43;92986.94;;;6.16;71.66
65376;BME280;51976;47.332;9.404;2023-04-08T10:00:15;93005.19;;;6.19;71.88
65376;BME280;51976;47.332;9.404;2023-04-08T10:03:22;92999.44;;;6.32;70.85
65376;BME280;51976;47.332;9.404;2023-04-08T10:05:36;92994.38;;;6.63;70.53
65376;BME280;51976;47.332;9.404;2023-04-08T10:08:03;92992.34;;;6.75;69.39
65376;BME280;51976;47.332;9.404;2023-04-08T10:10:29;92991.78;;;6.73;69.77
65376;BME280;51976;47.332;9.404;2023-04-08T10:12:55;92993.00;;;6.92;68.69
65376;BME280;51976;47.332;9.404;2023-04-08T10:15:26;92992.25;;;6.97;68.72
65376;BME280;51976;47.332;9.404;2023-04-08T10:20:57;92990.03;;;6.89;68.97
65376;BME280;51976;47.332;9.404;2023-04-08T10:23:52;92993.06;;;6.97;69.33
65376;BME280;51976;47.332;9.404;2023-04-08T10:26:30;92982.19;;;7.14;67.54
65376;BME280;51976;47.332;9.404;2023-04-08T10:31:59;92955.91;;;6.74;69.64
65376;BME280;51976;47.332;9.404;2023-04-08T10:34:26;92986.13;;;6.69;69.44
65376;BME280;51976;47.332;9.404;2023-04-08T10:36:54;92995.13;;;6.58;69.97
65376;BME280;51976;47.332;9.404;2023-04-08T10:39:19;92971.56;;;6.55;69.68
65376;BME280;51976;47.332;9.404;2023-04-08T10:41:47;92995.53;;;6.72;69.18
65376;BME280;51976;47.332;9.404;2023-04-08T10:44:16;92985.38;;;6.74;70.16
65376;BME280;51976;47.332;9.404;2023-04-08T10:46:43;92989.16;;;6.78;70.17
65376;BME280;51976;47.332;9.404;2023-04-08T10:49:08;92988.03;;;6.74;70.51
65376;BME280;51976;47.332;9.404;2023-04-08T10:51:33;92992.50;;;6.63;70.70
65376;BME280;51976;47.332;9.404;2023-04-08T10:54:10;92990.31;;;6.55;71.39
65376;BME280;51976;47.332;9.404;2023-04-08T10:56:43;92990.88;;;6.62;70.27
65376;BME280;51976;47.332;9.404;2023-04-08T10:59:09;92994.13;;;6.64;70.35
65376;BME280;51976;47.332;9.404;2023-04-08T11:01:38;92971.69;;;6.43;69.21
65376;BME280;51976;47.332;9.404;2023-04-08T11:04:12;92984.66;;;6.57;70.15
65376;BME280;51976;47.332;9.404;2023-04-08T11:06:37;92981.81;;;6.68;69.75
65376;BME280;51976;47.332;9.404;2023-04-08T11:09:03;92989.63;;;6.70;69.25
65376;BME280;51976;47.332;9.404;2023-04-08T11:11:29;92989.66;;;6.75;68.44
65376;BME280;51976;47.332;9.404;2023-04-08T11:13:56;92990.72;;;6.74;68.97
65376;BME280;51976;47.332;9.404;2023-04-08T11:16:21;92986.72;;;6.76;69.22
65376;BME280;51976;47.332;9.404;2023-04-08T11:18:47;92990.69;;;6.69;68.64
65376;BME280;51976;47.332;9.404;2023-04-08T11:21:14;92990.31;;;6.60;69.28
65376;BME280;51976;47.332;9.404;2023-04-08T11:23:41;92990.94;;;6.67;69.13
65376;BME280;51976;47.332;9.404;2023-04-08T11:26:07;92984.56;;;6.73;69.67
65376;BME280;51976;47.332;9.404;2023-04-08T11:28:33;92990.41;;;6.70;69.02
65376;BME280;51976;47.332;9.404;2023-04-08T11:30:59;92965.63;;;6.53;69.45
65376;BME280;51976;47.332;9.404;2023-04-08T11:33:29;92976.22;;;6.70;69.33
65376;BME280;51976;47.332;9.404;2023-04-08T11:35:55;92972.47;;;6.71;69.61
65376;BME280;51976;47.332;9.404;2023-04-08T11:38:22;92980.50;;;6.71;70.48
65376;BME280;51976;47.332;9.404;2023-04-08T11:40:54;92981.13;;;6.78;69.49
65376;BME280;51976;47.332;9.404;2023-04-08T11:43:20;92980.41;;;6.93;69.27
65376;BME280;51976;47.332;9.404;2023-04-08T11:45:46;92978.03;;;6.96;69.13
65376;BME280;51976;47.332;9.404;2023-04-08T11:48:13;92946.78;;;7.07;68.00
65376;BME280;51976;47.332;9.404;2023-04-08T11:50:40;92928.72;;;6.97;67.88
65376;BME280;51976;47.332;9.404;2023-04-08T11:53:23;92974.50;;;7.28;67.98
65376;BME280;51976;47.332;9.404;2023-04-08T11:55:49;92970.91;;;7.12;67.65
65376;BME280;51976;47.332;9.404;2023-04-08T11:58:14;92972.03;;;7.21;67.60
65376;BME280;51976;47.332;9.404;2023-04-08T12:00:40;92968.13;;;7.39;67.32
65376;BME280;51976;47.332;9.404;2023-04-08T12:03:07;92978.63;;;7.03;67.33
65376;BME280;51976;47.332;9.404;2023-04-08T12:05:32;92972.75;;;7.06;67.16
65376;BME280;51976;47.332;9.404;2023-04-08T12:07:57;92974.63;;;7.06;67.14
65376;BME280;51976;47.332;9.404;2023-04-08T12:10:23;92972.44;;;6.98;67.65
65376;BME280;51976;47.332;9.404;2023-04-08T12:12:51;92978.69;;;7.08;66.13
65376;BME280;51976;47.332;9.404;2023-04-08T12:15:17;92969.59;;;7.14;65.80
65376;BME280;51976;47.332;9.404;2023-04-08T12:17:43;92964.72;;;7.06;65.43
65376;BME280;51976;47.332;9.404;2023-04-08T12:20:09;92944.44;;;7.21;65.44
65376;BME280;51976;47.332;9.404;2023-04-08T12:22:35;92969.19;;;7.33;65.03
65376;BME280;51976;47.332;9.404;2023-04-08T12:25:01;92951.75;;;7.30;64.55
65376;BME280;51976;47.332;9.404;2023-04-08T12:27:28;92917.09;;;7.24;64.25
65376;BME280;51976;47.332;9.404;2023-04-08T12:29:54;92962.97;;;7.79;63.11
65376;BME280;51976;47.332;9.404;2023-04-08T12:32:20;92962.38;;;7.67;63.27
65376;BME280;51976;47.332;9.404;2023-04-08T12:34:45;92961.22;;;7.48;62.96
65376;BME280;51976;47.332;9.404;2023-04-08T12:37:11;92964.13;;;7.36;63.62
65376;BME280;51976;47.332;9.404;2023-04-08T12:39:37;92957.81;;;7.63;63.08
65376;BME280;51976;47.332;9.404;2023-04-08T12:42:02;92955.41;;;7.71;63.02
65376;BME280;51976;47.332;9.404;2023-04-08T12:44:28;92957.06;;;7.77;62.34
65376;BME280;51976;47.332;9.404;2023-04-08T12:46:54;92957.56;;;7.69;61.91
65376;BME280;51976;47.332;9.404;2023-04-08T12:49:19;92957.28;;;7.66;61.78
65376;BME280;51976;47.332;9.404;2023-04-08T12:51:45;92960.25;;;7.74;61.82
65376;BME280;51976;47.332;9.404;2023-04-08T12:54:10;92957.31;;;7.76;61.82
65376;BME280;51976;47.332;9.404;2023-04-08T12:56:36;92965.34;;;7.71;62.35
65376;BME280;51976;47.332;9.404;2023-04-08T12:59:03;92961.50;;;7.52;62.69
65376;BME280;51976;47.332;9.404;2023-04-08T13:01:28;92960.06;;;7.34;63.03
65376;BME280;51976;47.332;9.404;2023-04-08T13:03:54;92969.72;;;7.35;63.33
65376;BME280;51976;47.332;9.404;2023-04-08T13:06:20;92975.88;;;7.30;65.11
65376;BME280;51976;47.332;9.404;2023-04-08T13:08:45;92965.03;;;7.10;67.12
65376;BME280;51976;47.332;9.404;2023-04-08T13:11:11;92976.47;;;7.00;68.13
65376;BME280;51976;47.332;9.404;2023-04-08T13:13:36;92969.91;;;6.81;68.16